Terminal Aerodrome Forecast
Issued by NWS

Home | Current Version | Previous Version | Text Only | Print | Product List | Glossary On
Versions: 1 2 3 4 5 6 7 8 9 10
000
FTUS46 KSEW 281100
TAFCLM
TAF
KCLM 281130Z 2812/2912 27010KT P6SM SKC
     FM281800 25006KT P6SM BKN025
     FM290000 VRB04KT P6SM BKN050
     FM290600 05006KT P6SM SCT050 BKN130=

USA.gov is the U.S. government's official web portal to all federal, state and local government web resources and services.